24TS weather

Medical Center North Hills Heliport
North Richland Hills, Texas, United States

Public forecast

Using degrees Fahrenheit for public forecast. Weather courtesy of forecast.io.

METAR (pilot weather report)

Closest report is Fort Worth Meacham International Airport, 7.6 nm (14.0 km) W. Retrieved 2019/09/24 06:53 UTC (46 minutes ago):

KFTW 240653Z 16008KT 10SM CLR 27/21 A2995 RMK AO2 SLP131 T02670211 $

TAF (pilot weather forecast)

Closest forecast is Fort Worth Meacham International Airport, 7.6 nm (14.0 km) W. Retrieved 2019/09/24 06:22 UTC (1 hour ago):

TAF KFTW 240520Z 2406/2506 14008KT P6SM FEW050 BKN100 FM242100 16009KT P6SM VCTS BKN060CB FM250000 15009KT P6SM BKN100